Time;durP1;ratioP1;P1;durP2;ratioP2;P2;SDS_P1;SDS_P2;PMS_P1;PMS_P2;Temp;Humidity;BMP_temperature;BMP_pressure;BME280_temperature;BME280_humidity;BME280_pressure;Samples;Min_cycle;Max_cycle;Signal;HPM_P1;HPM_P2
2023/03/15 00:02:07;;;;;;;10.03;1.17;;;1.60;99.90;;;;;;5056059;28;20057;-21
2023/03/15 00:04:33;;;;;;;9.67;1.50;;;1.40;99.90;;;;;;5056027;28;20082;-21
2023/03/15 00:07:00;;;;;;;8.20;1.10;;;1.20;99.90;;;;;;5056517;28;20041;-20
2023/03/15 00:09:26;;;;;;;7.93;1.00;;;1.00;99.90;;;;;;5056525;28;20044;-20
2023/03/15 00:11:55;;;;;;;9.37;1.30;;;0.80;99.90;;;;;;5055838;28;20091;-21
2023/03/15 00:14:22;;;;;;;8.77;1.20;;;0.70;99.90;;;;;;5054818;28;20482;-21
2023/03/15 00:16:48;;;;;;;13.60;1.57;;;0.70;99.90;;;;;;5054872;28;20056;-20
2023/03/15 00:19:13;;;;;;;11.07;1.40;;;0.80;99.90;;;;;;5056269;28;20045;-21
2023/03/15 00:21:42;;;;;;;14.50;1.23;;;0.90;99.90;;;;;;5056217;28;20507;-21
2023/03/15 00:24:11;;;;;;;14.60;1.37;;;1.00;99.90;;;;;;5054743;28;20061;-20
2023/03/15 00:26:38;;;;;;;8.73;1.07;;;1.00;99.90;;;;;;5055362;28;20446;-21
2023/03/15 00:29:04;;;;;;;9.77;1.30;;;1.00;99.90;;;;;;5054426;28;20095;-21
2023/03/15 00:31:30;;;;;;;6.77;1.20;;;1.00;99.90;;;;;;5055793;28;20103;-21
2023/03/15 00:33:56;;;;;;;10.30;1.30;;;1.00;99.90;;;;;;5054343;28;20049;-20
2023/03/15 00:36:23;;;;;;;9.60;1.30;;;1.10;99.90;;;;;;5055482;28;20091;-20
2023/03/15 00:38:50;;;;;;;7.90;1.60;;;1.10;99.90;;;;;;5055863;28;20037;-21
2023/03/15 00:41:18;;;;;;;6.40;1.47;;;1.10;99.90;;;;;;5055307;28;20041;-21
2023/03/15 00:43:44;;;;;;;9.83;1.43;;;1.00;99.90;;;;;;5056106;28;20057;-20
2023/03/15 00:46:11;;;;;;;9.37;1.00;;;0.90;99.90;;;;;;5055258;28;20056;-20
2023/03/15 00:48:37;;;;;;;10.20;0.70;;;0.80;99.90;;;;;;5054944;28;20507;-20
2023/03/15 00:51:11;;;;;;;4.83;1.07;;;0.80;99.90;;;;;;5054843;28;20388;-21
2023/03/15 00:53:39;;;;;;;8.30;1.13;;;0.80;99.90;;;;;;5055422;28;20049;-21
2023/03/15 00:56:06;;;;;;;7.93;1.23;;;0.80;99.90;;;;;;5055056;28;20605;-21
2023/03/15 00:58:32;;;;;;;8.63;1.17;;;1.00;99.90;;;;;;5054946;28;20390;-21
2023/03/15 01:01:00;;;;;;;9.73;1.40;;;1.10;99.90;;;;;;5055003;28;20049;-21
2023/03/15 01:03:26;;;;;;;12.30;1.03;;;1.20;99.90;;;;;;5053783;28;20061;-20
2023/03/15 01:05:52;;;;;;;12.40;1.37;;;1.30;99.90;;;;;;5055151;28;20044;-21
2023/03/15 01:08:18;;;;;;;9.73;1.00;;;1.20;99.90;;;;;;5055084;28;20045;-21
2023/03/15 01:10:44;;;;;;;7.57;1.10;;;1.10;99.90;;;;;;5054771;28;20110;-20
2023/03/15 01:13:09;;;;;;;14.77;1.20;;;1.20;99.90;;;;;;5054738;28;20045;-21
2023/03/15 01:15:35;;;;;;;9.23;1.30;;;0.80;99.90;;;;;;5054700;28;20053;-20
2023/03/15 01:18:01;;;;;;;10.63;0.73;;;0.80;99.90;;;;;;5054646;28;20041;-20
2023/03/15 01:20:27;;;;;;;7.20;0.50;;;0.70;99.90;;;;;;5054766;28;20068;-20
2023/03/15 01:22:53;;;;;;;5.90;0.60;;;0.60;99.90;;;;;;5053389;28;20045;-20
2023/03/15 01:25:18;;;;;;;8.03;0.83;;;0.50;99.90;;;;;;5054501;28;20127;-21
2023/03/15 01:27:44;;;;;;;8.90;0.70;;;0.60;99.90;;;;;;5054386;28;20088;-21
2023/03/15 01:30:10;;;;;;;6.53;1.30;;;0.40;99.90;;;;;;5054917;28;20049;-21
2023/03/15 01:32:36;;;;;;;5.90;1.13;;;0.30;99.90;;;;;;5054356;28;20041;-21
2023/03/15 01:35:02;;;;;;;8.80;0.90;;;0.30;99.90;;;;;;5054298;28;20049;-20
2023/03/15 01:37:28;;;;;;;10.33;0.97;;;0.30;99.90;;;;;;5053842;28;20049;-21
2023/03/15 01:39:54;;;;;;;11.23;0.87;;;0.20;99.90;;;;;;5054159;28;20045;-21
2023/03/15 01:42:20;;;;;;;13.77;1.93;;;0.20;99.90;;;;;;5054437;28;20114;-20
2023/03/15 01:44:50;;;;;;;9.47;1.50;;;0.20;99.90;;;;;;5053173;28;20480;-21
2023/03/15 01:47:17;;;;;;;12.03;1.00;;;0.20;99.90;;;;;;5054699;28;20049;-21
2023/03/15 01:49:45;;;;;;;9.67;1.83;;;0.10;99.90;;;;;;5054056;28;20048;-21
2023/03/15 01:52:16;;;;;;;11.17;1.40;;;0.00;99.90;;;;;;5054013;28;20045;-21
2023/03/15 01:55:11;;;;;;;8.73;1.00;;;-0.10;99.90;;;;;;5053586;28;20518;-20
2023/03/15 01:57:54;;;;;;;5.70;1.17;;;-0.20;99.90;;;;;;5054552;28;20049;-21
2023/03/15 02:00:22;;;;;;;10.23;1.48;;;-0.20;99.90;;;;;;5053865;28;20434;-21
2023/03/15 02:03:13;;;;;;;12.10;1.30;;;-0.20;99.90;;;;;;5053874;28;20131;-21
2023/03/15 02:05:56;;;;;;;10.07;1.03;;;0.00;99.90;;;;;;5053893;28;20045;-21
2023/03/15 02:08:27;;;;;;;15.57;1.25;;;0.50;99.90;;;;;;5054139;28;20053;-21
2023/03/15 02:10:57;;;;;;;10.70;1.33;;;0.20;99.90;;;;;;5053692;28;20041;-20
2023/03/15 02:13:24;;;;;;;9.57;1.10;;;0.40;99.90;;;;;;5053864;28;20087;-21
2023/03/15 02:15:52;;;;;;;8.93;1.10;;;0.50;99.90;;;;;;5052597;28;20506;-20
2023/03/15 02:18:19;;;;;;;9.73;0.63;;;0.70;99.90;;;;;;5053575;28;20045;-21
2023/03/15 02:20:59;;;;;;;6.27;0.97;;;0.80;99.90;;;;;;5053604;28;20040;-21
2023/03/15 02:23:26;;;;;;;5.97;0.97;;;0.80;99.90;;;;;;5053619;28;20052;-21
2023/03/15 02:26:24;;;;;;;10.00;1.03;;;1.00;99.90;;;;;;5053589;28;20040;-21
2023/03/15 02:28:52;;;;;;;6.53;1.10;;;1.00;99.90;;;;;;5053886;28;20131;-21
2023/03/15 02:31:19;;;;;;;6.90;1.00;;;1.00;99.90;;;;;;5053513;28;20052;-21
2023/03/15 02:33:51;;;;;;;5.70;1.17;;;1.00;99.90;;;;;;5053428;28;20487;-21
2023/03/15 02:36:25;;;;;;;8.00;0.83;;;1.00;99.90;;;;;;5054336;28;20087;-21
2023/03/15 02:38:52;;;;;;;9.83;1.83;;;1.00;99.90;;;;;;5053786;28;20044;-20
2023/03/15 02:41:29;;;;;;;8.70;1.40;;;0.90;99.90;;;;;;5053447;28;20056;-21
2023/03/15 02:44:05;;;;;;;7.00;0.87;;;0.90;99.90;;;;;;5053784;28;20041;-21
2023/03/15 02:46:31;;;;;;;5.37;1.13;;;0.80;99.90;;;;;;5054261;28;20072;-21
2023/03/15 02:48:59;;;;;;;12.07;1.30;;;0.60;99.90;;;;;;5052421;28;20056;-21
2023/03/15 02:51:27;;;;;;;10.90;1.07;;;0.50;99.90;;;;;;5053901;28;20391;-21
2023/03/15 02:53:53;;;;;;;5.77;0.97;;;0.40;99.90;;;;;;5053873;28;20045;-20
2023/03/15 02:56:19;;;;;;;12.07;1.20;;;0.30;99.90;;;;;;5053252;28;20373;-21
2023/03/15 02:58:44;;;;;;;11.43;1.43;;;0.30;99.90;;;;;;5053735;28;20091;-20
2023/03/15 03:01:12;;;;;;;13.73;1.23;;;0.20;99.90;;;;;;5053198;28;20135;-21
2023/03/15 03:03:39;;;;;;;9.17;1.00;;;0.20;99.90;;;;;;5053256;28;20442;-21
2023/03/15 03:06:05;;;;;;;10.07;1.63;;;0.10;99.90;;;;;;5053469;28;20095;-20
2023/03/15 03:08:31;;;;;;;5.93;0.93;;;0.10;99.90;;;;;;5019430;28;20048;-21
2023/03/15 03:10:57;;;;;;;12.50;1.00;;;0.10;99.90;;;;;;5053086;28;20045;-21
2023/03/15 03:13:22;;;;;;;7.27;0.93;;;0.20;99.90;;;;;;5053102;28;20132;-20
2023/03/15 03:15:57;;;;;;;8.70;1.23;;;0.20;99.90;;;;;;5052440;28;20060;-21
2023/03/15 03:18:24;;;;;;;8.17;1.27;;;0.30;99.90;;;;;;5052887;28;20110;-21
2023/03/15 03:20:50;;;;;;;8.17;1.47;;;0.30;99.90;;;;;;5053015;28;20068;-21
2023/03/15 03:23:16;;;;;;;5.37;1.13;;;0.20;99.90;;;;;;5053567;28;20048;-21
2023/03/15 03:25:44;;;;;;;12.10;1.27;;;0.20;99.90;;;;;;5038088;28;20053;-20
2023/03/15 03:28:10;;;;;;;6.30;1.20;;;0.30;99.90;;;;;;5056924;28;20068;-21
2023/03/15 03:30:35;;;;;;;13.40;1.50;;;0.20;99.90;;;;;;5055747;28;20049;-20
2023/03/15 03:33:01;;;;;;;6.33;1.17;;;0.20;99.90;;;;;;5039918;28;20455;-20
2023/03/15 03:35:27;;;;;;;9.90;0.97;;;0.10;99.90;;;;;;5056654;28;20076;-21
2023/03/15 03:37:53;;;;;;;8.50;1.30;;;0.00;99.90;;;;;;5056134;28;20150;-21
2023/03/15 03:40:19;;;;;;;9.60;1.13;;;-0.10;99.90;;;;;;5056459;28;20128;-21
2023/03/15 03:42:45;;;;;;;7.50;1.07;;;-0.20;99.90;;;;;;5056725;28;20099;-20
2023/03/15 03:45:10;;;;;;;6.20;0.83;;;-0.30;99.90;;;;;;5055714;28;20490;-21
2023/03/15 03:47:36;;;;;;;11.77;1.23;;;-0.40;99.90;;;;;;5055172;28;20056;-20
2023/03/15 03:50:02;;;;;;;5.97;0.73;;;-0.50;99.90;;;;;;5055147;28;20045;-20
2023/03/15 03:52:28;;;;;;;8.67;0.90;;;-0.50;99.90;;;;;;5056262;28;20075;-20
2023/03/15 03:54:54;;;;;;;5.67;0.93;;;-0.20;99.90;;;;;;5055556;28;20067;-20
2023/03/15 03:57:19;;;;;;;5.90;1.70;;;-0.70;99.90;;;;;;5056209;28;20517;-20
2023/03/15 03:59:45;;;;;;;5.33;0.77;;;-0.80;99.90;;;;;;5056903;28;20128;-20
2023/03/15 04:02:11;;;;;;;3.70;0.50;;;-0.90;99.90;;;;;;5056104;28;20068;-21
2023/03/15 04:04:40;;;;;;;3.50;0.57;;;-0.90;99.90;;;;;;5056090;28;20045;-20
2023/03/15 04:07:06;;;;;;;4.83;0.50;;;-0.90;99.90;;;;;;5055520;28;20052;-20
2023/03/15 04:09:36;;;;;;;5.03;0.40;;;-1.00;99.90;;;;;;5055144;28;20136;-20
2023/03/15 04:12:02;;;;;;;5.07;0.87;;;-1.20;99.90;;;;;;5038304;28;20056;-20
2023/03/15 04:14:28;;;;;;;3.90;0.53;;;-1.30;99.90;;;;;;5055908;28;20395;-20
2023/03/15 04:16:54;;;;;;;8.63;1.13;;;-1.50;99.90;;;;;;5054902;28;20053;-20
2023/03/15 04:19:20;;;;;;;3.27;0.20;;;-1.60;99.90;;;;;;5054650;28;20049;-20
2023/03/15 04:21:46;;;;;;;4.80;0.63;;;-1.80;99.90;;;;;;5055709;28;20055;-20
2023/03/15 04:24:12;;;;;;;2.80;0.20;;;-1.80;99.90;;;;;;5056512;28;20099;-20
2023/03/15 04:26:38;;;;;;;6.33;1.03;;;-1.80;99.90;;;;;;5054496;28;20049;-20
2023/03/15 04:29:04;;;;;;;6.13;0.60;;;-1.90;99.90;;;;;;5054561;28;20062;-21
2023/03/15 04:31:36;;;;;;;3.10;0.43;;;-1.90;99.90;;;;;;5055601;28;20476;-20
2023/03/15 04:34:03;;;;;;;6.23;0.50;;;-2.10;99.90;;;;;;5055854;28;20049;-20
2023/03/15 04:36:29;;;;;;;5.67;1.00;;;-2.10;99.90;;;;;;5053947;28;20037;-20
2023/03/15 04:39:05;;;;;;;7.73;0.53;;;-2.20;99.90;;;;;;5055378;28;20045;-20
2023/03/15 04:41:35;;;;;;;18.63;1.93;;;-2.30;99.90;;;;;;5039275;28;20095;-20
2023/03/15 04:44:02;;;;;;;5.30;0.60;;;-2.30;99.90;;;;;;5055609;28;20095;-20
2023/03/15 04:46:32;;;;;;;4.90;0.70;;;-2.40;99.90;;;;;;5055267;28;20053;-20
2023/03/15 04:48:59;;;;;;;7.90;0.70;;;-2.40;99.90;;;;;;5055603;28;20081;-20
2023/03/15 04:51:25;;;;;;;4.00;0.50;;;-2.40;99.90;;;;;;5037702;28;20045;-20
2023/03/15 04:53:51;;;;;;;13.87;1.17;;;-1.50;99.90;;;;;;5054009;28;20056;-20
2023/03/15 04:56:17;;;;;;;4.90;0.50;;;-1.90;99.90;;;;;;5053850;28;20045;-19
2023/03/15 04:58:43;;;;;;;6.13;0.93;;;-1.80;99.90;;;;;;5054934;28;20041;-19
2023/03/15 05:01:09;;;;;;;5.47;0.97;;;-1.90;99.90;;;;;;5054066;28;20076;-19
2023/03/15 05:03:35;;;;;;;4.87;0.70;;;-1.90;99.90;;;;;;5053957;28;20084;-20
2023/03/15 05:06:06;;;;;;;12.93;1.03;;;-1.70;99.90;;;;;;5054747;28;20049;-19
2023/03/15 05:08:36;;;;;;;7.70;0.63;;;-1.50;99.90;;;;;;5054900;28;20053;-19
2023/03/15 05:11:05;;;;;;;10.20;1.00;;;-0.70;99.90;;;;;;5055546;28;20391;-19
2023/03/15 05:13:31;;;;;;;6.53;1.07;;;-1.10;99.90;;;;;;5054766;28;20053;-19
2023/03/15 05:15:56;;;;;;;3.47;0.80;;;-0.90;99.90;;;;;;5054723;28;20452;-19
2023/03/15 05:18:22;;;;;;;2.47;0.60;;;-0.90;99.90;;;;;;5054447;28;20049;-20
2023/03/15 05:20:49;;;;;;;10.37;0.80;;;-0.90;99.90;;;;;;5054609;28;20052;-19
2023/03/15 05:23:15;;;;;;;6.90;1.20;;;-1.10;99.90;;;;;;5053143;28;20423;-19
2023/03/15 05:25:42;;;;;;;4.77;0.90;;;-1.20;99.90;;;;;;5054547;28;20049;-19
2023/03/15 05:28:07;;;;;;;5.60;0.53;;;-1.40;99.90;;;;;;5054138;28;20064;-20
2023/03/15 05:30:33;;;;;;;9.23;0.70;;;-1.00;99.90;;;;;;5054461;28;20400;-19
2023/03/15 05:33:03;;;;;;;8.20;2.10;;;-0.80;99.90;;;;;;5053408;28;20099;-19
2023/03/15 05:35:29;;;;;;;4.63;0.83;;;-0.70;99.90;;;;;;5054875;28;20102;-19
2023/03/15 05:37:55;;;;;;;2.90;1.07;;;-0.20;99.90;;;;;;5054305;28;20041;-20
2023/03/15 05:40:20;;;;;;;8.47;1.13;;;-0.60;99.90;;;;;;5054161;28;20434;-20
2023/03/15 05:42:46;;;;;;;7.33;1.07;;;-0.50;99.90;;;;;;5053056;28;20049;-20
2023/03/15 05:45:12;;;;;;;6.47;0.70;;;-0.50;99.90;;;;;;5053522;28;20045;-19
2023/03/15 05:47:38;;;;;;;4.87;0.80;;;-0.50;99.90;;;;;;5052944;28;20533;-19
2023/03/15 05:50:04;;;;;;;6.77;0.90;;;-0.50;99.90;;;;;;5053202;28;20041;-20
2023/03/15 05:52:30;;;;;;;10.60;0.67;;;-0.40;99.90;;;;;;5054014;28;20135;-20
2023/03/15 05:54:56;;;;;;;4.90;0.90;;;-0.30;99.90;;;;;;5036109;28;20052;-20
2023/03/15 05:57:22;;;;;;;5.73;0.93;;;-0.10;99.90;;;;;;5053945;28;20048;-20
2023/03/15 05:59:48;;;;;;;6.33;1.20;;;-0.20;99.90;;;;;;5053847;28;20049;-20
2023/03/15 06:02:14;;;;;;;6.73;0.60;;;-0.30;99.90;;;;;;5053527;28;20125;-20
2023/03/15 06:04:40;;;;;;;4.67;0.90;;;-0.30;99.90;;;;;;5054684;28;20099;-20
2023/03/15 06:07:06;;;;;;;12.07;1.27;;;-0.30;99.90;;;;;;5052665;28;20048;-20
2023/03/15 06:09:31;;;;;;;9.47;1.60;;;-0.40;99.90;;;;;;5053699;28;20045;-20
2023/03/15 06:11:58;;;;;;;6.70;1.07;;;-0.40;99.90;;;;;;5052500;28;20049;-20
2023/03/15 06:14:25;;;;;;;5.80;1.30;;;-0.50;99.90;;;;;;5053944;28;20045;-20
2023/03/15 06:16:50;;;;;;;2.90;0.50;;;-0.60;99.90;;;;;;5052496;28;20044;-20
2023/03/15 06:19:16;;;;;;;7.00;0.73;;;-0.60;99.90;;;;;;5052418;28;20360;-20
2023/03/15 06:21:42;;;;;;;7.73;1.30;;;-0.60;99.90;;;;;;5053653;28;20049;-19
2023/03/15 06:24:08;;;;;;;8.80;1.53;;;-0.50;99.90;;;;;;5053567;28;20131;-19
2023/03/15 06:26:34;;;;;;;10.17;1.10;;;-0.40;99.90;;;;;;5053634;28;20127;-19
2023/03/15 06:29:00;;;;;;;6.43;0.80;;;-0.40;99.90;;;;;;5052186;28;20064;-19
2023/03/15 06:31:26;;;;;;;6.67;0.70;;;-0.40;99.90;;;;;;5053561;28;20494;-20
2023/03/15 06:33:51;;;;;;;6.97;1.30;;;-0.40;99.90;;;;;;5053516;28;20048;-20
2023/03/15 06:36:17;;;;;;;10.33;1.20;;;-0.40;99.90;;;;;;5053550;28;20049;-20
2023/03/15 06:38:43;;;;;;;8.80;1.03;;;-0.30;99.90;;;;;;5035633;28;20052;-20
2023/03/15 06:41:11;;;;;;;7.63;0.87;;;-0.20;99.90;;;;;;5053659;28;20049;-20
2023/03/15 06:43:37;;;;;;;5.50;1.13;;;-0.20;99.90;;;;;;5053312;28;20053;-20
2023/03/15 06:46:03;;;;;;;8.00;0.87;;;-0.10;99.90;;;;;;5053928;28;20077;-20
2023/03/15 06:48:30;;;;;;;7.93;1.20;;;-0.10;99.90;;;;;;5053379;28;20620;-20
2023/03/15 06:50:55;;;;;;;9.13;1.77;;;0.00;99.90;;;;;;5053979;28;20387;-20
2023/03/15 06:53:21;;;;;;;8.20;1.10;;;0.10;99.90;;;;;;5053398;28;20045;-20
2023/03/15 06:55:49;;;;;;;8.70;1.03;;;0.20;99.90;;;;;;5053325;28;20048;-20
2023/03/15 06:58:15;;;;;;;7.90;1.57;;;0.30;99.90;;;;;;5035995;28;20106;-20
2023/03/15 07:00:41;;;;;;;7.13;1.23;;;0.40;99.90;;;;;;5053967;28;20125;-20
2023/03/15 07:03:07;;;;;;;9.37;1.90;;;0.50;99.90;;;;;;5056548;28;20102;-20
2023/03/15 07:05:33;;;;;;;12.17;1.07;;;0.60;99.90;;;;;;5057173;28;20525;-20
2023/03/15 07:07:59;;;;;;;12.27;1.53;;;0.70;99.90;;;;;;5056731;28;20048;-20
2023/03/15 07:10:25;;;;;;;13.67;1.70;;;0.80;99.90;;;;;;5039409;28;20071;-20
2023/03/15 07:12:51;;;;;;;6.43;1.00;;;0.90;99.90;;;;;;5057319;28;20186;-20
2023/03/15 07:15:16;;;;;;;12.20;2.17;;;0.90;99.90;;;;;;5055843;28;20511;-20
2023/03/15 07:17:42;;;;;;;7.37;0.93;;;1.00;99.90;;;;;;5056966;28;20045;-21
2023/03/15 07:20:09;;;;;;;4.53;0.80;;;1.10;99.90;;;;;;5057126;28;20121;-21
2023/03/15 07:22:34;;;;;;;6.90;0.90;;;1.20;99.90;;;;;;5039224;28;20053;-20
2023/03/15 07:25:00;;;;;;;6.13;0.60;;;1.20;99.90;;;;;;5056825;28;20056;-21
2023/03/15 07:27:26;;;;;;;1.97;0.63;;;1.20;99.90;;;;;;5055603;28;20045;-20
2023/03/15 07:29:54;;;;;;;5.90;1.47;;;1.60;99.90;;;;;;5057288;28;20044;-21
2023/03/15 07:32:19;;;;;;;6.80;1.37;;;1.30;99.90;;;;;;5055744;28;20041;-20
2023/03/15 07:34:45;;;;;;;9.13;1.40;;;1.60;99.90;;;;;;5039446;28;20178;-20
2023/03/15 07:37:11;;;;;;;4.77;0.60;;;1.50;99.90;;;;;;5056596;28;20051;-20
2023/03/15 07:39:37;;;;;;;11.70;2.00;;;1.80;99.90;;;;;;5056506;28;20116;-20
2023/03/15 07:42:05;;;;;;;5.60;1.17;;;1.80;99.90;;;;;;5038990;28;20051;-20
2023/03/15 07:44:32;;;;;;;10.47;2.10;;;1.90;99.90;;;;;;5056474;28;20136;-20
2023/03/15 07:46:57;;;;;;;13.17;1.10;;;2.00;99.90;;;;;;5055277;28;20136;-20
2023/03/15 07:49:23;;;;;;;22.23;2.23;;;2.20;99.90;;;;;;5056032;28;20120;-21
2023/03/15 07:51:50;;;;;;;10.70;1.67;;;2.30;99.90;;;;;;5038619;28;20467;-21
2023/03/15 07:54:15;;;;;;;12.10;1.90;;;2.40;99.90;;;;;;5055164;28;20053;-21
2023/03/15 07:56:41;;;;;;;5.47;1.13;;;2.50;99.90;;;;;;5054734;28;20097;-21
2023/03/15 07:59:08;;;;;;;5.80;1.93;;;2.60;99.90;;;;;;5054770;28;20048;-21
2023/03/15 08:01:34;;;;;;;9.67;1.30;;;2.70;99.90;;;;;;5056192;28;20509;-21
2023/03/15 08:04:00;;;;;;;9.80;1.70;;;2.90;99.90;;;;;;5055818;28;20088;-21
2023/03/15 08:06:26;;;;;;;8.97;1.17;;;2.90;99.90;;;;;;5055413;28;20048;-21
2023/03/15 08:08:51;;;;;;;6.03;1.10;;;3.10;99.90;;;;;;5056555;28;20045;-21
2023/03/15 08:11:17;;;;;;;8.00;1.15;;;3.10;99.90;;;;;;5055193;28;20393;-21
2023/03/15 08:13:43;;;;;;;9.57;1.75;;;3.20;99.90;;;;;;5055648;28;20467;-21
2023/03/15 08:16:09;;;;;;;6.40;1.20;;;3.30;99.90;;;;;;5054716;28;20052;-21
2023/03/15 08:18:35;;;;;;;6.88;2.03;;;3.40;99.90;;;;;;5055715;28;20041;-21
2023/03/15 08:21:00;;;;;;;4.13;0.90;;;3.40;99.90;;;;;;5054577;28;20053;-21
2023/03/15 08:23:26;;;;;;;5.03;1.42;;;3.50;99.90;;;;;;5055752;28;20048;-21
2023/03/15 08:25:52;;;;;;;11.95;1.38;;;3.60;99.90;;;;;;5056245;28;20096;-20
2023/03/15 08:28:20;;;;;;;4.22;0.80;;;3.70;99.90;;;;;;5055230;28;20053;-20
2023/03/15 08:30:47;;;;;;;7.80;0.70;;;;;;;;;;5055559;28;20049;-20
2023/03/15 08:33:13;;;;;;;7.50;1.03;;;3.80;99.90;;;;;;5055804;28;20080;-19
2023/03/15 08:35:40;;;;;;;3.03;0.67;;;4.00;99.90;;;;;;5056105;28;20439;-20
2023/03/15 08:38:06;;;;;;;9.23;1.55;;;4.10;99.90;;;;;;5055501;28;20055;-19
2023/03/15 08:40:32;;;;;;;7.65;1.05;;;4.20;99.90;;;;;;5055338;28;20041;-19
2023/03/15 08:42:58;;;;;;;5.93;0.75;;;4.40;99.90;;;;;;5055358;28;20045;-19
2023/03/15 08:45:25;;;;;;;6.57;1.35;;;4.40;99.90;;;;;;5055409;28;20052;-20
2023/03/15 08:47:58;;;;;;;4.40;0.40;;;4.50;99.90;;;;;;5055288;28;20088;-20
2023/03/15 08:50:25;;;;;;;5.20;0.80;;;4.60;99.90;;;;;;5055258;28;20119;-20
2023/03/15 08:52:59;;;;;;;12.10;1.80;;;4.60;99.90;;;;;;5053883;28;20084;-20
2023/03/15 08:55:25;;;;;;;8.95;1.08;;;4.70;99.90;;;;;;5055259;28;20041;-20
2023/03/15 08:57:51;;;;;;;4.32;0.57;;;4.70;99.90;;;;;;5055087;28;20051;-20
2023/03/15 09:00:21;;;;;;;4.72;1.33;;;4.80;99.90;;;;;;5054110;28;20041;-20
2023/03/15 09:02:53;;;;;;;7.20;1.13;;;4.90;99.90;;;;;;5054736;28;20045;-20
2023/03/15 09:05:20;;;;;;;6.00;0.98;;;5.00;99.90;;;;;;5053731;28;20479;-20
2023/03/15 09:07:46;;;;;;;5.25;1.25;;;5.10;99.90;;;;;;5053764;28;20049;-20
2023/03/15 09:10:15;;;;;;;3.75;0.90;;;5.10;99.90;;;;;;5054734;28;20041;-20
2023/03/15 09:12:46;;;;;;;11.30;2.75;;;5.20;99.90;;;;;;5054664;28;20106;-20
2023/03/15 09:15:12;;;;;;;6.57;0.82;;;5.20;99.90;;;;;;5037131;28;20045;-20
2023/03/15 09:17:39;;;;;;;9.68;1.15;;;5.30;99.90;;;;;;5054018;28;20052;-20
2023/03/15 09:20:13;;;;;;;8.85;1.88;;;5.40;99.90;;;;;;5054601;28;20041;-20
2023/03/15 09:22:40;;;;;;;4.93;1.15;;;5.60;99.90;;;;;;5053835;28;20396;-20
2023/03/15 09:25:09;;;;;;;7.50;0.80;;;5.60;99.90;;;;;;5054625;28;20044;-20
2023/03/15 09:27:35;;;;;;;9.68;1.27;;;6.20;99.90;;;;;;5054331;28;20067;-20
2023/03/15 09:30:01;;;;;;;3.90;1.00;;;6.70;99.90;;;;;;5054438;28;20487;-20
2023/03/15 09:32:27;;;;;;;7.97;0.98;;;6.70;99.90;;;;;;5054449;28;20052;-20
2023/03/15 09:34:53;;;;;;;6.60;1.00;;;7.00;99.90;;;;;;5054377;28;20110;-19
2023/03/15 09:37:20;;;;;;;9.10;1.45;;;7.10;99.90;;;;;;5053376;28;20136;-20
2023/03/15 09:39:46;;;;;;;5.57;0.82;;;7.30;99.90;;;;;;5053177;28;20110;-22
2023/03/15 09:42:39;;;;;;;5.75;0.98;;;7.40;99.90;;;;;;5054240;28;20045;-22
2023/03/15 09:45:17;;;;;;;6.40;0.80;;;7.30;99.90;;;;;;5054278;28;20476;-22
2023/03/15 09:48:07;;;;;;;3.53;0.70;;;7.30;99.90;;;;;;5054234;28;20053;-22
2023/03/15 09:50:45;;;;;;;5.78;0.63;;;7.10;99.90;;;;;;5053134;28;20041;-22
2023/03/15 09:53:20;;;;;;;4.78;0.75;;;7.10;99.90;;;;;;5054121;28;20526;-22
2023/03/15 09:55:47;;;;;;;5.80;1.00;;;7.10;99.90;;;;;;5054052;28;20057;-22
2023/03/15 09:58:18;;;;;;;4.95;0.70;;;7.20;99.90;;;;;;5054538;28;20049;-22
2023/03/15 10:00:51;;;;;;;5.95;1.13;;;7.30;99.90;;;;;;5053342;28;20084;-22
2023/03/15 10:03:29;;;;;;;5.32;1.48;;;7.40;99.90;;;;;;5054539;28;20061;-22
2023/03/15 10:06:00;;;;;;;9.07;1.00;;;7.50;99.90;;;;;;5054232;28;20105;-22
2023/03/15 10:08:26;;;;;;;8.18;1.42;;;7.50;99.90;;;;;;5053909;28;20048;-22
2023/03/15 10:11:14;;;;;;;6.15;0.93;;;7.50;99.90;;;;;;5053970;28;20049;-22
2023/03/15 10:14:05;;;;;;;6.47;0.60;;;7.60;99.90;;;;;;5054428;28;20131;-22
2023/03/15 10:16:48;;;;;;;4.22;0.93;;;7.50;99.90;;;;;;5053479;28;20056;-22
2023/03/15 10:19:32;;;;;;;;;;;7.70;99.90;;;;;;5053736;28;20521;-22
2023/03/15 10:22:13;;;;;;;5.20;1.00;;;7.30;99.90;;;;;;5053028;28;20023;-22
2023/03/15 10:25:04;;;;;;;3.60;0.45;;;7.60;99.90;;;;;;5053609;28;20049;-22
2023/03/15 10:27:48;;;;;;;4.32;0.90;;;7.60;99.90;;;;;;5053776;28;20114;-22
2023/03/15 10:30:22;;;;;;;3.40;0.70;;;8.00;99.90;;;;;;5053592;28;20554;-22
2023/03/15 10:32:58;;;;;;;4.70;0.90;;;8.00;99.90;;;;;;5053551;28;20051;-22
2023/03/15 10:35:24;;;;;;;6.50;1.20;;;8.20;99.90;;;;;;5053555;28;20056;-22
2023/03/15 10:37:50;;;;;;;4.78;0.82;;;8.30;99.90;;;;;;5053193;28;20569;-22
2023/03/15 10:40:39;;;;;;;2.35;0.65;;;8.50;99.90;;;;;;5053420;28;20041;-22
2023/03/15 10:43:25;;;;;;;5.82;1.33;;;7.80;99.90;;;;;;5053749;28;20044;-22
2023/03/15 10:46:12;;;;;;;6.15;1.45;;;7.60;99.90;;;;;;5053497;28;20131;-21
2023/03/15 10:48:50;;;;;;;6.00;0.85;;;7.70;99.90;;;;;;5053961;28;20041;-22
2023/03/15 10:51:30;;;;;;;6.50;0.75;;;8.00;99.90;;;;;;5053416;28;20037;-22
2023/03/15 10:54:18;;;;;;;3.80;0.80;;;8.20;99.90;;;;;;5052433;28;20045;-22
2023/03/15 10:56:46;;;;;;;3.08;0.75;;;8.30;99.90;;;;;;5053300;28;20403;-22
2023/03/15 10:59:23;;;;;;;9.77;1.63;;;8.60;99.90;;;;;;5053527;28;20045;-22
2023/03/15 11:01:52;;;;;;;7.93;1.00;;;9.10;99.90;;;;;;5053612;28;20052;-22
2023/03/15 11:04:30;;;;;;;7.25;1.30;;;8.80;99.90;;;;;;5052095;28;20442;-22
2023/03/15 11:06:55;;;;;;;4.65;1.33;;;8.60;99.90;;;;;;5053841;28;20052;-21
2023/03/15 11:09:26;;;;;;;6.80;1.38;;;8.30;99.90;;;;;;5052874;28;20064;-22
2023/03/15 11:11:59;;;;;;;4.20;0.95;;;8.50;99.90;;;;;;5054019;28;20079;-22
2023/03/15 11:14:47;;;;;;;7.15;1.55;;;8.50;99.90;;;;;;5053174;28;20048;-21
2023/03/15 11:17:22;;;;;;;8.07;1.27;;;8.40;99.90;;;;;;5053281;28;20048;-22
2023/03/15 11:19:58;;;;;;;7.47;1.17;;;8.20;99.90;;;;;;5053668;28;20053;-22
2023/03/15 11:22:24;;;;;;;5.70;0.65;;;8.30;99.90;;;;;;5053681;28;20056;-22
2023/03/15 11:24:53;;;;;;;6.32;0.70;;;8.60;99.90;;;;;;5052389;28;20049;-21
2023/03/15 11:27:21;;;;;;;4.18;0.90;;;8.60;99.90;;;;;;5052702;28;20503;-22
2023/03/15 11:29:54;;;;;;;5.00;0.80;;;8.70;99.90;;;;;;5053044;28;20045;-22
2023/03/15 11:32:23;;;;;;;3.95;0.73;;;8.60;99.90;;;;;;5053077;28;20049;-21
2023/03/15 11:35:14;;;;;;;4.03;0.73;;;8.50;99.90;;;;;;5051971;28;20498;-21
2023/03/15 11:37:47;;;;;;;8.27;1.05;;;8.50;99.90;;;;;;5053016;28;20132;-22
2023/03/15 11:40:24;;;;;;;4.18;0.65;;;8.60;99.90;;;;;;5053156;28;20091;-21
2023/03/15 11:42:55;;;;;;;3.65;0.47;;;8.70;99.90;;;;;;5053515;28;20048;-21
2023/03/15 11:45:32;;;;;;;6.28;0.85;;;8.60;99.90;;;;;;5052907;28;20044;-21
2023/03/15 11:48:28;;;;;;;5.85;1.17;;;8.70;99.90;;;;;;5055865;28;20371;-22
2023/03/15 11:50:55;;;;;;;4.82;1.52;;;8.70;99.90;;;;;;5056398;28;20033;-22
2023/03/15 11:53:23;;;;;;;10.25;0.75;;;9.00;99.90;;;;;;5056871;28;20048;-21
2023/03/15 11:55:53;;;;;;;4.72;0.85;;;9.10;99.90;;;;;;5056856;28;20394;-22
2023/03/15 11:58:32;;;;;;;7.35;0.98;;;9.40;99.90;;;;;;5056224;28;20052;-22
2023/03/15 12:01:04;;;;;;;9.38;1.15;;;9.50;99.90;;;;;;5055222;28;20049;-21
2023/03/15 12:03:40;;;;;;;7.93;1.40;;;9.30;99.90;;;;;;5056192;28;20053;-21
2023/03/15 12:06:11;;;;;;;2.67;0.40;;;9.00;99.90;;;;;;5056721;28;20048;-21
2023/03/15 12:08:49;;;;;;;7.63;0.75;;;9.00;99.90;;;;;;5055477;28;20045;-21
2023/03/15 12:11:21;;;;;;;6.15;1.77;;;9.00;99.90;;;;;;5056471;28;20056;-21
2023/03/15 12:14:23;;;;;;;9.85;1.40;;;8.90;99.90;;;;;;5055694;28;20048;-21
2023/03/15 12:16:49;;;;;;;4.85;0.73;;;9.20;99.90;;;;;;5070439;28;20044;-21
2023/03/15 12:19:19;;;;;;;5.18;0.90;;;9.30;99.90;;;;;;5075850;28;20131;-21
2023/03/15 12:21:54;;;;;;;3.95;0.70;;;9.10;99.90;;;;;;5076199;28;20371;-21
2023/03/15 12:24:27;;;;;;;4.50;0.65;;;9.20;99.90;;;;;;5075782;28;20409;-21
2023/03/15 12:27:04;;;;;;;5.65;1.10;;;9.00;99.90;;;;;;5074387;28;20048;-22
2023/03/15 12:29:32;;;;;;;7.25;1.48;;;9.20;99.90;;;;;;5076323;28;20050;-22
2023/03/15 12:32:01;;;;;;;3.15;0.73;;;9.00;99.90;;;;;;5075646;28;20040;-21
2023/03/15 12:34:33;;;;;;;6.10;0.90;;;9.00;99.90;;;;;;5075663;28;20057;-21
2023/03/15 12:37:06;;;;;;;2.28;0.68;;;9.20;99.90;;;;;;5075825;28;20386;-21
2023/03/15 12:39:40;;;;;;;7.55;1.50;;;9.30;99.90;;;;;;5075517;28;20147;-21
2023/03/15 12:42:10;;;;;;;2.85;0.50;;;9.40;99.90;;;;;;5075093;28;20127;-21
2023/03/15 12:44:40;;;;;;;6.88;1.10;;;9.50;99.90;;;;;;5074745;28;20101;-21
2023/03/15 12:47:09;;;;;;;3.67;0.90;;;9.50;99.90;;;;;;5075605;28;20083;-21
2023/03/15 12:49:43;;;;;;;4.05;1.17;;;9.40;99.90;;;;;;5075268;28;20114;-21
2023/03/15 12:52:14;;;;;;;7.40;1.08;;;9.80;99.90;;;;;;5073942;28;20047;-21
2023/03/15 12:54:52;;;;;;;7.53;0.70;;;9.60;99.90;;;;;;5075210;28;20045;-21
2023/03/15 12:57:26;;;;;;;2.53;0.47;;;9.40;99.90;;;;;;5075791;28;20076;-21
2023/03/15 12:59:55;;;;;;;4.75;1.13;;;9.40;99.90;;;;;;5074182;28;20051;-22
2023/03/15 13:02:45;;;;;;;4.93;0.80;;;9.40;99.90;;;;;;5075015;28;20052;-21
2023/03/15 13:05:17;;;;;;;7.95;0.85;;;9.50;99.90;;;;;;5074578;28;20060;-21